Time;durP1;ratioP1;P1;durP2;ratioP2;P2;SDS_P1;SDS_P2;PMS_P1;PMS_P2;Temp;Humidity;BMP_temperature;BMP_pressure;BME280_temperature;BME280_humidity;BME280_pressure;Samples;Min_cycle;Max_cycle;Signal;HPM_P1;HPM_P2
2021/12/12 00:01:15;;;;;;;;;5.67;5.67;;;;;17.30;60.14;101945.34;5011932;28;9173;-66
2021/12/12 00:03:47;;;;;;;;;3.67;3.67;;;;;17.30;60.11;101947.97;5011078;28;9275;-65
2021/12/12 00:06:28;;;;;;;;;5.67;5.00;;;;;17.31;60.16;101948.00;5010530;28;9437;-65
2021/12/12 00:09:04;;;;;;;;;6.00;6.00;;;;;17.27;60.21;101938.28;5011368;28;9256;-65
2021/12/12 00:11:33;;;;;;;;;6.00;6.00;;;;;17.28;60.32;101932.09;5011016;28;9099;-65
2021/12/12 00:14:12;;;;;;;;;4.67;3.33;;;;;17.28;60.24;101928.63;5011396;28;9361;-65
2021/12/12 00:16:38;;;;;;;;;3.33;3.33;;;;;17.27;60.09;101926.84;5010318;28;9363;-65
2021/12/12 00:19:04;;;;;;;;;6.50;4.75;;;;;17.25;60.08;101915.34;5011011;28;9272;-65
2021/12/12 00:21:31;;;;;;;;;5.00;4.00;;;;;17.30;59.93;101914.56;5011841;28;9401;-65
2021/12/12 00:23:58;;;;;;;;;4.00;4.00;;;;;17.26;60.01;101907.47;5010823;28;9498;-64
2021/12/12 00:26:23;;;;;;;;;4.00;4.00;;;;;17.28;60.18;101908.34;5008702;28;9439;-67
2021/12/12 00:28:52;;;;;;;;;3.50;3.00;;;;;17.31;60.25;101905.78;5011522;28;9419;-66
2021/12/12 00:31:21;;;;;;;;;6.00;5.00;;;;;17.32;59.82;101909.31;5010800;28;8850;-66
2021/12/12 00:33:49;;;;;;;;;4.33;4.33;;;;;17.29;60.17;101910.13;5011251;28;9462;-66
2021/12/12 00:36:18;;;;;;;;;5.00;4.00;;;;;17.27;60.05;101897.78;5010174;28;9285;-66
2021/12/12 00:38:56;;;;;;;;;4.00;4.00;;;;;17.31;59.85;101902.25;5010331;28;9528;-66
2021/12/12 00:41:31;;;;;;;;;3.33;3.33;;;;;17.31;59.86;101904.88;5011185;28;9236;-66
2021/12/12 00:44:01;;;;;;;;;7.00;6.00;;;;;17.29;60.06;101902.22;5011203;28;9419;-67
2021/12/12 00:46:27;;;;;;;;;6.00;5.33;;;;;17.29;59.82;101901.31;5008561;28;9458;-66
2021/12/12 00:48:54;;;;;;;;;6.33;5.33;;;;;17.27;60.03;101896.06;5011295;28;9414;-66
2021/12/12 00:51:29;;;;;;;;;5.00;5.00;;;;;17.24;59.79;101901.31;5011205;28;9370;-66
2021/12/12 00:53:56;;;;;;;;;4.00;3.00;;;;;17.25;59.97;101895.13;5010485;28;9290;-67
2021/12/12 00:56:21;;;;;;;;;5.00;5.00;;;;;17.28;59.65;101907.50;5012892;28;9362;-66
2021/12/12 00:58:47;;;;;;;;;4.33;4.33;;;;;17.28;59.79;101910.13;5010800;28;9471;-66
2021/12/12 01:01:18;;;;;;;;;3.33;3.33;;;;;17.26;59.68;101898.66;5010477;28;8774;-66
2021/12/12 01:03:49;;;;;;;;;4.00;4.00;;;;;17.27;59.71;101897.78;5010962;28;8817;-67
2021/12/12 01:06:35;;;;;;;;;5.00;5.00;;;;;17.30;59.64;101904.00;5009458;28;9347;-67
2021/12/12 01:09:09;;;;;;;;;4.00;4.00;;;;;17.30;59.85;101897.81;4991374;28;9129;-66
2021/12/12 01:11:43;;;;;;;;;3.00;2.67;;;;;17.28;59.72;101883.75;4991330;28;9175;-66
2021/12/12 01:14:15;;;;;;;;;3.67;3.67;;;;;17.33;59.58;101905.78;4991268;28;9544;-67
2021/12/12 01:16:48;;;;;;;;;3.00;3.00;;;;;17.30;59.80;101890.81;5002084;28;9216;-66
2021/12/12 01:19:20;;;;;;;;;4.00;4.00;;;;;17.26;59.64;101896.03;5011186;28;9209;-66
2021/12/12 01:21:50;;;;;;;;;4.00;4.00;;;;;17.27;59.89;101892.53;5010269;28;9386;-66
2021/12/12 01:24:24;;;;;;;;;5.00;5.00;;;;;17.28;59.47;101891.66;5026568;28;9363;-66
2021/12/12 01:26:51;;;;;;;;;3.67;3.67;;;;;17.23;59.78;101883.69;5030565;28;9266;-67
2021/12/12 01:29:17;;;;;;;;;5.00;4.00;;;;;17.25;59.96;101889.84;5029939;28;9334;-66
2021/12/12 01:31:47;;;;;;;;;3.67;3.67;;;;;17.26;59.95;101886.34;5030214;28;9441;-68
2021/12/12 01:34:17;;;;;;;;;4.00;3.00;;;;;17.27;59.47;101892.53;5030114;28;8815;-66
2021/12/12 01:36:50;;;;;;;;;2.75;2.75;;;;;17.29;59.59;101896.03;5030833;28;9396;-66
2021/12/12 01:39:21;;;;;;;;;3.00;3.00;;;;;17.24;59.49;101882.81;5034773;28;9375;-66
2021/12/12 01:42:02;;;;;;;;;4.00;3.00;;;;;17.27;59.66;101884.59;5033390;28;9447;-65
2021/12/12 01:44:50;;;;;;;;;3.00;3.00;;;;;17.24;59.72;101890.75;5034513;28;10000;-66
2021/12/12 01:47:23;;;;;;;;;3.00;2.00;;;;;17.25;59.55;101899.53;5034538;28;9250;-66
2021/12/12 01:49:54;;;;;;;;;4.00;3.00;;;;;17.26;59.53;101881.06;5033345;28;9332;-66
2021/12/12 01:52:25;;;;;;;;;3.33;3.33;;;;;17.27;59.55;101874.94;5034432;28;9378;-66
2021/12/12 01:54:57;;;;;;;;;5.33;4.00;;;;;17.29;59.53;101875.81;5033987;28;9329;-66
2021/12/12 01:57:26;;;;;;;;;6.00;5.00;;;;;17.28;59.62;101873.19;5033626;28;9410;-66
2021/12/12 01:59:53;;;;;;;;;5.00;5.00;;;;;17.25;59.48;101868.72;5034190;28;9508;-66
2021/12/12 02:02:39;;;;;;;;;4.67;3.33;;;;;17.26;59.41;101873.16;5033001;28;9432;-67
2021/12/12 02:05:11;;;;;;;;;4.33;4.33;;;;;17.24;59.71;101863.47;5034072;28;9335;-66
2021/12/12 02:07:40;;;;;;;;;3.00;3.00;;;;;17.26;59.38;101861.72;5034208;28;9258;-66
2021/12/12 02:10:11;;;;;;;;;3.67;3.67;;;;;17.26;59.47;101861.72;5033358;28;9260;-66
2021/12/12 02:12:40;;;;;;;;;4.33;3.00;;;;;17.24;59.54;101855.53;5033743;28;9479;-66
2021/12/12 02:15:12;;;;;;;;;5.00;4.00;;;;;17.22;59.62;101863.44;5033746;28;9277;-66
2021/12/12 02:17:43;;;;;;;;;3.00;3.00;;;;;17.25;59.46;101867.84;5033027;28;9343;-66
2021/12/12 02:20:33;;;;;;;;;5.00;5.00;;;;;17.27;59.20;101871.41;5033792;28;9386;-66
2021/12/12 02:36:35;;;;;;;;;3.00;3.00;;;;;17.29;59.36;101878.47;5033415;28;9400;-66
2021/12/12 02:39:05;;;;;;;;;3.33;3.33;;;;;17.27;59.03;101868.78;5032721;28;9391;-66
2021/12/12 02:41:31;;;;;;;;;2.75;2.75;;;;;17.27;59.23;101863.50;5033785;28;8779;-66
2021/12/12 02:43:59;;;;;;;;;3.00;3.00;;;;;17.20;59.11;101849.34;5035690;28;9414;-66
2021/12/12 02:46:33;;;;;;;;;3.50;3.25;;;;;17.25;59.21;101857.28;5032732;28;8797;-67
2021/12/12 02:49:08;;;;;;;;;3.00;3.00;;;;;17.24;59.21;101851.16;5032021;28;9393;-67
2021/12/12 02:51:37;;;;;;;;;3.25;2.50;;;;;17.24;59.07;101856.44;5032414;28;9383;-67
2021/12/12 02:54:03;;;;;;;;;4.00;4.00;;;;;17.17;58.99;101846.66;5032812;28;10266;-67
2021/12/12 02:56:44;;;;;;;;;3.25;3.25;;;;;17.21;59.13;101853.72;5033130;28;9534;-67
2021/12/12 02:59:15;;;;;;;;;3.25;3.25;;;;;17.25;59.40;101854.66;5036481;28;9524;-67
2021/12/12 03:01:48;;;;;;;;;4.00;2.50;;;;;17.27;59.20;101860.84;5032757;28;9481;-65
2021/12/12 03:04:14;;;;;;;;;4.00;4.00;;;;;17.26;59.08;101857.31;5033165;28;9484;-65
2021/12/12 03:06:42;;;;;;;;;3.00;3.00;;;;;17.27;58.87;101860.84;5032380;28;9425;-66
2021/12/12 03:09:12;;;;;;;;;2.00;2.00;;;;;17.26;58.97;101857.31;5032938;28;8776;-65
2021/12/12 03:11:38;;;;;;;;;3.00;3.00;;;;;17.25;58.97;101859.94;5033059;28;9265;-66
2021/12/12 03:14:04;;;;;;;;;3.00;3.00;;;;;17.26;59.20;101859.97;5031874;28;9275;-65
2021/12/12 03:16:34;;;;;;;;;4.67;4.67;;;;;17.26;58.92;101859.06;5032960;28;9491;-66
2021/12/12 03:19:00;;;;;;;;;3.33;3.33;;;;;17.23;59.29;101865.22;5032329;28;9324;-65
2021/12/12 03:21:32;;;;;;;;;5.50;4.00;;;;;17.25;58.88;101855.53;5032022;28;9268;-65
2021/12/12 03:24:13;;;;;;;;;2.50;2.50;;;;;17.26;58.99;101845.88;5032258;28;8791;-66
2021/12/12 03:26:42;;;;;;;;;3.00;3.00;;;;;17.26;59.10;101845.88;5032689;28;9416;-66
2021/12/12 03:29:08;;;;;;;;;3.00;3.00;;;;;17.26;59.22;101837.94;5032459;28;9481;-66
2021/12/12 03:31:41;;;;;;;;;3.67;3.33;;;;;17.28;59.20;101844.16;5032414;28;9366;-66
2021/12/12 03:34:09;;;;;;;;;2.00;2.00;;;;;17.25;58.94;101834.44;5031497;28;8819;-66
2021/12/12 03:36:35;;;;;;;;;3.00;3.00;;;;;17.23;59.16;101843.22;5032215;28;9339;-66
2021/12/12 03:39:07;;;;;;;;;3.33;3.33;;;;;17.23;59.08;101835.28;5032283;28;9404;-66
2021/12/12 03:41:35;;;;;;;;;3.00;3.00;;;;;17.24;59.16;101847.63;5031864;28;9331;-66
2021/12/12 03:44:10;;;;;;;;;3.00;3.00;;;;;17.14;59.00;101828.16;5031946;28;9493;-65
2021/12/12 03:46:36;;;;;;;;;3.00;3.00;;;;;17.23;59.07;101849.38;5032126;28;9330;-67
2021/12/12 03:49:04;;;;;;;;;2.00;2.00;;;;;17.24;59.26;101853.78;5031280;28;9330;-67
2021/12/12 03:51:33;;;;;;;;;3.67;3.67;;;;;17.23;59.29;101856.41;5032281;28;9199;-66
2021/12/12 03:53:59;;;;;;;;;3.67;3.67;;;;;17.24;59.12;101858.19;5031926;28;9394;-67
2021/12/12 03:56:25;;;;;;;;;3.33;3.00;;;;;17.22;59.00;101854.63;5031398;28;9262;-67
2021/12/12 03:58:54;;;;;;;;;4.00;3.33;;;;;17.20;59.21;101856.38;5031706;28;9339;-67
2021/12/12 04:01:22;;;;;;;;;3.00;3.00;;;;;17.23;58.99;101867.84;5031525;28;8783;-67
2021/12/12 04:03:52;;;;;;;;;4.00;3.00;;;;;17.23;58.66;101864.31;5031096;28;9323;-67
2021/12/12 04:06:20;;;;;;;;;3.00;3.00;;;;;17.26;59.06;101862.59;5031902;28;9303;-67
2021/12/12 04:08:49;;;;;;;;;2.00;2.00;;;;;17.23;58.77;101841.47;5031388;28;9314;-66
2021/12/12 04:11:20;;;;;;;;;3.00;3.00;;;;;17.28;58.85;101857.34;5031027;28;9316;-65
2021/12/12 04:13:48;;;;;;;;;2.00;2.00;;;;;17.25;58.65;101852.91;5031017;28;9341;-65
2021/12/12 04:16:16;;;;;;;;;4.00;3.00;;;;;17.22;59.06;101857.25;5031090;28;9404;-65
2021/12/12 04:18:41;;;;;;;;;3.00;3.00;;;;;17.23;58.98;101849.38;5031223;28;9351;-67
2021/12/12 04:21:07;;;;;;;;;1.33;1.33;;;;;17.25;58.99;101846.72;5031692;28;9396;-66
2021/12/12 04:23:33;;;;;;;;;3.33;3.00;;;;;17.24;58.55;101847.63;5030993;28;8783;-66
2021/12/12 04:26:15;;;;;;;;;2.00;2.00;;;;;17.24;58.92;101848.50;5031467;28;10045;-67
2021/12/12 04:28:40;;;;;;;;;4.00;4.00;;;;;17.25;58.79;101841.44;5031280;28;8783;-66
2021/12/12 04:31:06;;;;;;;;;4.67;4.67;;;;;17.24;58.77;101845.88;5030709;28;9014;-66
2021/12/12 04:33:31;;;;;;;;;5.00;4.00;;;;;17.23;59.12;101849.38;5031443;28;8813;-66
2021/12/12 04:35:56;;;;;;;;;5.00;4.00;;;;;17.26;58.96;101856.44;5030884;28;8807;-66
2021/12/12 04:38:23;;;;;;;;;3.67;3.67;;;;;17.25;58.64;101847.63;5030762;28;8764;-66
2021/12/12 04:40:48;;;;;;;;;4.00;4.00;;;;;17.22;58.92;101847.59;5031160;28;8786;-66
2021/12/12 04:43:14;;;;;;;;;3.67;3.67;;;;;17.25;59.00;101844.09;5031450;28;9511;-66
2021/12/12 04:46:03;;;;;;;;;4.75;4.75;;;;;17.24;58.90;101853.78;5030406;28;8787;-66
2021/12/12 04:51:42;;;;;;;;;3.00;3.00;;;;;17.24;58.97;101858.19;5030386;28;9364;-66
2021/12/12 04:54:19;;;;;;;;;3.00;3.00;;;;;17.25;58.77;101859.94;5030746;28;10140;-65
2021/12/12 04:56:54;;;;;;;;;2.00;2.00;;;;;17.20;58.71;101859.91;5030854;28;9354;-65
2021/12/12 04:59:37;;;;;;;;;3.00;3.00;;;;;17.25;58.96;101863.47;5030178;28;9349;-65
2021/12/12 05:02:24;;;;;;;;;5.00;4.00;;;;;17.25;59.06;101865.22;5030702;28;9321;-66
2021/12/12 05:05:03;;;;;;;;;4.33;4.33;;;;;17.26;58.74;101874.91;5030922;28;9948;-65
2021/12/12 05:07:41;;;;;;;;;3.00;3.00;;;;;17.25;59.11;101866.09;5030461;28;9359;-66
2021/12/12 05:10:15;;;;;;;;;3.00;3.00;;;;;17.23;58.72;101867.84;5031111;28;9244;-65
2021/12/12 05:12:45;;;;;;;;;3.33;3.33;;;;;17.25;58.78;101865.22;5031897;28;9372;-66
2021/12/12 05:15:18;;;;;;;;;3.33;3.33;;;;;17.24;58.80;101871.38;5035088;28;9218;-66
2021/12/12 05:18:20;;;;;;;;;2.67;2.67;;;;;17.24;59.23;101874.91;5034844;28;9342;-66
2021/12/12 05:20:55;;;;;;;;;3.00;3.00;;;;;17.24;58.80;101869.63;5033891;28;9248;-65
2021/12/12 05:23:24;;;;;;;;;4.00;4.00;;;;;17.23;58.76;101877.53;5035018;28;9215;-65
2021/12/12 05:25:54;;;;;;;;;4.00;4.00;;;;;17.23;59.04;101882.78;5034433;28;9348;-65
2021/12/12 05:28:35;;;;;;;;;4.00;4.00;;;;;17.23;58.81;101883.69;5033984;28;9246;-66
2021/12/12 05:31:04;;;;;;;;;5.00;5.00;;;;;17.25;58.63;101888.97;5033930;28;9307;-65
2021/12/12 05:33:31;;;;;;;;;3.50;3.50;;;;;17.24;58.79;101880.19;5034022;28;9250;-65
2021/12/12 05:35:57;;;;;;;;;2.33;2.33;;;;;17.25;58.88;101884.56;5034670;28;9342;-66
2021/12/12 05:38:28;;;;;;;;;2.00;2.00;;;;;17.23;58.81;101886.31;5034676;28;9113;-65
2021/12/12 05:40:54;;;;;;;;;2.00;1.00;;;;;17.20;59.05;101886.28;5033470;28;9297;-65
2021/12/12 05:43:20;;;;;;;;;3.00;3.00;;;;;17.21;58.80;101888.03;5034660;28;9267;-66
2021/12/12 05:45:47;;;;;;;;;4.00;3.33;;;;;17.21;58.70;101884.50;5034560;28;8801;-65
2021/12/12 05:48:16;;;;;;;;;3.33;3.33;;;;;17.24;58.84;101892.50;5033766;28;9248;-66
2021/12/12 05:50:46;;;;;;;;;4.00;3.00;;;;;17.25;58.91;101891.59;5034009;28;9997;-66
2021/12/12 05:53:13;;;;;;;;;3.50;3.50;;;;;17.24;58.86;101888.09;5034360;28;9209;-65
2021/12/12 05:55:42;;;;;;;;;5.00;4.00;;;;;17.20;58.90;101880.13;5033790;28;9468;-66
2021/12/12 05:58:11;;;;;;;;;4.67;3.33;;;;;17.24;58.79;101890.75;5034968;28;9416;-65
2021/12/12 06:00:48;;;;;;;;;5.00;5.00;;;;;17.25;59.00;101891.59;5036741;28;9239;-65
2021/12/12 06:03:16;;;;;;;;;4.25;4.25;;;;;17.25;59.13;101895.13;5033553;28;9358;-66
2021/12/12 06:05:42;;;;;;;;;4.50;3.75;;;;;17.22;58.99;101895.09;5033766;28;9334;-66
2021/12/12 06:08:09;;;;;;;;;5.00;5.00;;;;;17.18;58.95;101903.84;5034056;28;9401;-66
2021/12/12 06:10:39;;;;;;;;;4.00;4.00;;;;;17.22;58.94;101907.41;5033568;28;8772;-66
2021/12/12 06:13:09;;;;;;;;;3.33;3.00;;;;;17.25;58.94;101910.06;5035731;28;9407;-66
2021/12/12 06:15:35;;;;;;;;;5.00;4.00;;;;;17.24;59.07;101908.31;5034412;28;9308;-65
2021/12/12 06:18:04;;;;;;;;;4.25;4.25;;;;;17.25;58.56;101907.44;5034064;28;9311;-66
2021/12/12 06:20:35;;;;;;;;;3.33;3.33;;;;;17.21;58.80;101900.34;5034125;28;9463;-66
2021/12/12 06:23:04;;;;;;;;;4.75;4.50;;;;;17.22;58.67;101910.94;5032836;28;9278;-65
2021/12/12 06:25:29;;;;;;;;;6.25;4.00;;;;;17.25;59.03;101915.34;5034080;28;9409;-66
2021/12/12 06:27:54;;;;;;;;;5.33;5.33;;;;;17.24;58.96;101918.88;5033403;28;10052;-66
2021/12/12 06:30:23;;;;;;;;;4.00;4.00;;;;;17.24;58.63;101916.25;5033432;28;8874;-66
2021/12/12 06:32:52;;;;;;;;;5.25;5.25;;;;;17.22;58.80;101910.03;5032996;28;8902;-66
2021/12/12 06:35:19;;;;;;;;;6.50;6.50;;;;;17.22;58.75;101921.50;5033396;28;9391;-66
2021/12/12 06:37:48;;;;;;;;;4.33;4.33;;;;;17.25;58.93;101923.28;5032387;28;9497;-66
2021/12/12 06:40:17;;;;;;;;;5.00;5.00;;;;;17.24;58.98;101921.53;5033696;28;9316;-67
2021/12/12 06:42:43;;;;;;;;;6.00;5.00;;;;;17.25;58.70;101923.28;5033156;28;9262;-66
2021/12/12 06:45:12;;;;;;;;;5.25;5.25;;;;;17.21;58.88;101918.81;5032839;28;9274;-66
2021/12/12 06:47:38;;;;;;;;;5.00;5.00;;;;;17.18;58.81;101911.78;5033232;28;8787;-66
2021/12/12 06:50:05;;;;;;;;;5.00;5.00;;;;;17.25;59.06;101923.28;5033084;28;9346;-66
2021/12/12 06:52:31;;;;;;;;;7.00;5.75;;;;;17.25;59.18;101918.00;5032200;28;8823;-66
2021/12/12 06:54:57;;;;;;;;;6.25;5.25;;;;;17.22;58.89;101926.78;5032995;28;9558;-66
2021/12/12 06:57:23;;;;;;;;;5.75;5.75;;;;;17.25;58.76;101923.28;5033016;28;9321;-65
2021/12/12 06:59:50;;;;;;;;;5.00;5.00;;;;;17.21;58.88;101922.34;5032092;28;8783;-65
2021/12/12 07:02:16;;;;;;;;;5.75;5.00;;;;;17.21;58.96;101932.03;5032849;28;9395;-65
2021/12/12 07:04:46;;;;;;;;;5.75;5.75;;;;;17.18;58.82;101924.06;5032093;28;9485;-66
2021/12/12 07:07:15;;;;;;;;;6.00;6.00;;;;;17.25;59.06;101929.44;5033150;28;9509;-66
2021/12/12 07:09:44;;;;;;;;;8.25;8.25;;;;;17.24;58.88;101932.97;5032801;28;9469;-66
2021/12/12 07:12:12;;;;;;;;;7.25;7.25;;;;;17.26;58.75;101933.84;5031890;28;9661;-66
2021/12/12 07:14:38;;;;;;;;;6.00;6.00;;;;;17.25;58.97;101942.63;5032762;28;9457;-66
2021/12/12 07:17:05;;;;;;;;;6.00;6.00;;;;;17.28;58.71;101940.03;5032335;28;9486;-66
2021/12/12 07:19:35;;;;;;;;;7.00;5.25;;;;;17.26;59.02;101940.88;5032012;28;9397;-66
2021/12/12 07:22:00;;;;;;;;;5.00;5.00;;;;;17.24;59.02;101940.00;5032505;28;9478;-66
2021/12/12 07:24:26;;;;;;;;;5.75;5.75;;;;;17.27;58.92;101940.91;5032593;28;9726;-66
2021/12/12 07:26:53;;;;;;;;;7.50;6.00;;;;;17.23;58.98;101941.75;5031521;28;8801;-65
2021/12/12 07:29:19;;;;;;;;;6.75;6.75;;;;;17.26;58.68;101946.16;5032486;28;9396;-65
2021/12/12 07:31:44;;;;;;;;;6.25;6.25;;;;;17.20;58.94;101936.44;5031946;28;9430;-65
2021/12/12 07:34:14;;;;;;;;;8.00;7.00;;;;;17.23;58.77;101943.50;5031692;28;8831;-65
2021/12/12 07:36:44;;;;;;;;;6.25;6.25;;;;;17.23;58.86;101948.78;5031512;28;8807;-65
2021/12/12 07:39:13;;;;;;;;;6.75;6.00;;;;;17.20;58.93;101936.44;5032290;28;9410;-65
2021/12/12 07:41:42;;;;;;;;;7.00;7.00;;;;;17.24;58.92;101950.56;5031858;28;9590;-65
2021/12/12 07:44:10;;;;;;;;;6.25;6.00;;;;;17.25;58.86;101945.28;5031967;28;9394;-65
2021/12/12 07:46:39;;;;;;;;;7.75;7.25;;;;;17.25;58.82;101952.31;5032420;28;9499;-65
2021/12/12 07:49:06;;;;;;;;;9.00;6.25;;;;;17.24;58.98;101959.38;5031397;28;9467;-65
2021/12/12 07:51:37;;;;;;;;;7.75;6.50;;;;;17.25;58.89;101966.38;5032129;28;9443;-65
2021/12/12 07:54:05;;;;;;;;;8.00;7.00;;;;;17.24;58.73;101955.84;5030760;28;9351;-65
2021/12/12 07:56:33;;;;;;;;;8.75;8.00;;;;;17.21;58.93;101959.31;5031576;28;9563;-65
2021/12/12 07:59:00;;;;;;;;;8.50;6.25;;;;;17.27;58.80;101956.75;5031309;28;9552;-65
2021/12/12 08:01:27;;;;;;;;;8.00;7.00;;;;;17.25;59.14;101958.47;5031237;28;9363;-66
2021/12/12 08:03:54;;;;;;;;;7.50;7.00;;;;;17.22;58.95;101971.63;5031550;28;9725;-66
2021/12/12 08:06:20;;;;;;;;;6.50;6.50;;;;;17.24;58.80;101976.94;5031507;28;9488;-66
2021/12/12 08:08:46;;;;;;;;;6.25;6.25;;;;;17.26;59.04;101983.13;5030418;28;10302;-65
2021/12/12 08:11:17;;;;;;;;;6.75;6.75;;;;;17.26;59.21;101976.09;5031518;28;8791;-65
2021/12/12 08:13:48;;;;;;;;;7.00;7.00;;;;;17.25;58.76;101981.34;5030967;28;9454;-65
2021/12/12 08:16:15;;;;;;;;;7.75;7.25;;;;;17.30;58.83;101990.22;5030509;28;9387;-65
2021/12/12 08:18:41;;;;;;;;;7.00;7.00;;;;;17.23;58.88;101986.63;5031194;28;9631;-65
2021/12/12 08:21:07;;;;;;;;;7.00;7.00;;;;;17.26;58.98;101998.97;5031102;28;10373;-65
2021/12/12 08:23:34;;;;;;;;;8.00;8.00;;;;;17.23;59.00;102004.19;5030259;28;9641;-65
2021/12/12 08:26:02;;;;;;;;;7.00;7.00;;;;;17.26;58.99;102013.03;5031297;28;8791;-65
2021/12/12 08:28:31;;;;;;;;;7.25;6.50;;;;;17.24;59.06;102008.63;5031421;28;9472;-65
2021/12/12 08:31:00;;;;;;;;;7.00;7.00;;;;;17.27;59.00;102011.28;5030204;28;9628;-65
2021/12/12 08:33:27;;;;;;;;;6.75;6.75;;;;;17.25;58.91;102010.38;5031293;28;9681;-65
2021/12/12 08:35:58;;;;;;;;;7.00;7.00;;;;;17.23;58.87;102010.38;5031083;28;9528;-65
2021/12/12 08:38:27;;;;;;;;;6.75;6.75;;;;;17.25;59.11;102011.25;5030588;28;9791;-65
2021/12/12 08:40:58;;;;;;;;;8.25;7.25;;;;;17.26;59.20;102018.31;5031016;28;9555;-65
2021/12/12 08:43:26;;;;;;;;;8.25;8.25;;;;;17.28;58.73;102021.00;5030185;28;9570;-66
2021/12/12 08:45:58;;;;;;;;;8.00;8.00;;;;;17.21;58.79;102005.91;5029628;28;10345;-65
2021/12/12 08:48:28;;;;;;;;;11.75;10.50;;;;;17.17;58.88;102007.63;5024979;28;9585;-65
2021/12/12 08:50:56;;;;;;;;;8.00;6.33;;;;;17.25;58.98;102021.81;5010128;28;9542;-65
2021/12/12 08:53:23;;;;;;;;;8.00;8.00;;;;;17.25;58.83;102020.94;5011029;28;9551;-65
2021/12/12 08:55:53;;;;;;;;;7.00;6.67;;;;;17.26;58.97;102031.53;5013029;28;9430;-65
2021/12/12 08:58:23;;;;;;;;;8.33;8.33;;;;;17.26;59.06;102026.25;5009062;28;9387;-65
2021/12/12 09:00:57;;;;;;;;;9.50;9.50;;;;;17.27;58.84;102037.69;5010899;28;9313;-65
2021/12/12 09:03:40;;;;;;;;;8.50;8.50;;;;;17.28;58.94;102040.31;5011302;28;10257;-64
2021/12/12 09:06:09;;;;;;;;;9.00;8.00;;;;;17.30;58.92;102048.28;5011258;28;9654;-64
2021/12/12 09:08:43;;;;;;;;;8.50;8.50;;;;;17.25;59.07;102040.28;5010438;28;9588;-63
2021/12/12 09:11:27;;;;;;;;;8.50;8.50;;;;;17.29;58.88;102055.31;5011556;28;9732;-65
2021/12/12 09:13:54;;;;;;;;;9.50;8.50;;;;;17.29;59.21;102054.41;5010617;28;9555;-65
2021/12/12 09:16:36;;;;;;;;;7.00;6.00;;;;;17.26;59.18;102051.75;5011085;28;9713;-66
2021/12/12 09:19:12;;;;;;;;;10.25;8.00;;;;;17.29;58.89;102052.66;5008094;28;9511;-64
2021/12/12 09:21:53;;;;;;;;;8.25;8.25;;;;;17.27;58.98;102059.69;5011428;28;9571;-65
2021/12/12 09:24:30;;;;;;;;;11.00;10.25;;;;;17.28;58.92;102063.22;5011344;28;9759;-64
2021/12/12 09:27:02;;;;;;;;;9.50;9.00;;;;;17.31;59.23;102069.44;5010077;28;9527;-64
2021/12/12 09:29:48;;;;;;;;;8.75;8.75;;;;;17.28;59.17;102071.16;5009215;28;9689;-64
2021/12/12 09:32:24;;;;;;;;;6.25;6.25;;;;;17.31;59.12;102071.19;5010587;28;9801;-65
2021/12/12 09:35:01;;;;;;;;;7.25;7.25;;;;;17.27;58.76;102074.66;5010537;28;9506;-65
2021/12/12 09:37:46;;;;;;;;;9.25;9.00;;;;;17.29;58.85;102070.25;5011278;28;9539;-64
2021/12/12 09:40:27;;;;;;;;;9.00;9.00;;;;;17.31;59.30;102080.00;5008814;28;9409;-65
2021/12/12 09:43:29;;;;;;;;;8.50;7.25;;;;;17.30;58.95;102074.69;5010485;28;9637;-65
2021/12/12 09:46:18;;;;;;;;;5.50;5.00;;;;;17.30;58.80;102083.50;5010412;28;9429;-64
2021/12/12 09:52:16;;;;;;;;;8.50;8.50;;;;;17.34;59.13;102087.06;5010559;28;9475;-64
2021/12/12 09:54:47;;;;;;;;;8.75;7.50;;;;;17.35;58.97;102073.88;5009673;28;9468;-65
2021/12/12 09:57:24;;;;;;;;;8.00;8.00;;;;;17.37;60.09;102045.75;5010297;28;9488;-64
2021/12/12 10:00:08;;;;;;;;;8.75;8.75;;;;;17.46;60.47;102070.50;5013957;28;9517;-64
2021/12/12 10:03:12;;;;;;;;;13.25;11.75;;;;;17.51;61.97;102080.22;5013518;28;10335;-65
2021/12/12 10:06:01;;;;;;;;;12.25;12.25;;;;;17.55;63.15;102074.13;5014128;28;9591;-65
2021/12/12 10:08:46;;;;;;;;;14.50;10.75;;;;;17.59;64.66;102080.38;5013645;28;9584;-68
2021/12/12 10:11:38;;;;;;;;;12.25;12.25;;;;;17.62;65.39;102083.94;5014162;28;9554;-65
2021/12/12 10:14:31;;;;;;;;;9.75;9.25;;;;;17.64;66.74;102090.13;5013669;28;9508;-64
2021/12/12 10:17:13;;;;;;;;;10.00;10.00;;;;;17.59;66.42;102088.28;5012959;28;9402;-64
2021/12/12 10:19:44;;;;;;;;;13.00;11.75;;;;;17.52;65.95;102082.00;5014240;28;9760;-65
2021/12/12 10:22:27;;;;;;;;;12.00;10.75;;;;;17.48;65.99;102081.94;5012904;28;9648;-65
2021/12/12 10:25:09;;;;;;;;;10.50;10.50;;;;;17.50;66.59;102094.31;5012562;28;10514;-65
2021/12/12 10:27:39;;;;;;;;;12.25;10.25;;;;;17.48;65.59;102088.13;5013692;28;9493;-65
2021/12/12 10:30:25;;;;;;;;;12.75;10.75;;;;;17.50;65.80;102091.69;5013184;28;9563;-65
2021/12/12 10:33:18;;;;;;;;;8.50;8.50;;;;;17.49;65.49;102089.91;5011319;28;9601;-64
2021/12/12 10:35:52;;;;;;;;;8.25;8.25;;;;;17.49;65.42;102079.34;5012936;28;9569;-65
2021/12/12 10:38:22;;;;;;;;;9.25;9.25;;;;;17.46;65.35;102076.66;5013158;28;9444;-66
2021/12/12 10:41:04;;;;;;;;;11.00;11.00;;;;;17.47;65.28;102086.34;5011996;28;9659;-65
2021/12/12 10:43:53;;;;;;;;;9.25;8.25;;;;;17.48;65.37;102080.19;5012383;28;9626;-70
2021/12/12 10:46:38;;;;;;;;;7.50;6.50;;;;;17.50;65.57;102080.22;5013590;28;9432;-65
2021/12/12 10:49:23;;;;;;;;;6.50;6.25;;;;;17.51;64.84;102085.50;5013030;28;9323;-66
2021/12/12 10:52:09;;;;;;;;;7.00;7.00;;;;;17.51;64.94;102088.16;5011502;28;10149;-65
2021/12/12 10:55:00;;;;;;;;;11.33;8.00;;;;;17.51;65.10;102088.16;5019460;28;12017;-66
2021/12/12 10:57:29;;;;;;;;;6.00;6.00;;;;;17.50;64.84;102086.41;5011238;28;11492;-66
2021/12/12 11:00:21;;;;;;;;;7.67;6.67;;;;;17.53;64.87;102085.53;5011860;28;9283;-66
2021/12/12 11:03:01;;;;;;;;;7.00;7.00;;;;;17.51;64.82;102085.50;5012603;28;9225;-66
2021/12/12 11:05:33;;;;;;;;;7.00;7.00;;;;;17.52;64.65;102084.66;5011134;28;10794;-66
2021/12/12 11:08:24;;;;;;;;;8.33;7.00;;;;;17.53;64.92;102089.06;5008237;28;10596;-66
2021/12/12 11:10:53;;;;;;;;;9.00;8.00;;;;;17.52;64.83;102086.41;4998319;28;11194;-66
2021/12/12 11:13:25;;;;;;;;;6.00;5.67;;;;;17.52;64.88;102094.31;5012058;28;9286;-66
2021/12/12 11:16:02;;;;;;;;;7.00;7.00;;;;;17.52;64.74;102100.50;5012455;28;9520;-67
2021/12/12 11:18:54;;;;;;;;;5.00;5.00;;;;;17.49;64.35;102087.25;5009220;28;10743;-66
2021/12/12 11:21:31;;;;;;;;;7.67;7.00;;;;;17.54;64.29;102098.78;5012555;28;9343;-66
2021/12/12 11:24:07;;;;;;;;;6.33;4.67;;;;;17.50;64.16;102094.31;5015334;28;10678;-64
2021/12/12 11:26:56;;;;;;;;;5.25;5.25;;;;;17.54;64.63;102096.13;5012209;28;9317;-64
2021/12/12 11:29:35;;;;;;;;;8.50;6.25;;;;;17.54;64.16;102105.81;5011136;28;9475;-66
2021/12/12 11:32:06;;;;;;;;;4.33;4.00;;;;;17.56;64.23;102096.13;5011492;28;9514;-65
2021/12/12 11:34:32;;;;;;;;;8.50;7.00;;;;;17.53;64.52;102109.31;5012594;28;9470;-64
2021/12/12 11:37:36;;;;;;;;;5.00;5.00;;;;;17.54;64.53;102101.41;5012144;28;9517;-64
2021/12/12 11:40:07;;;;;;;;;4.75;4.75;;;;;17.53;64.28;102106.66;4995776;28;12155;-66
2021/12/12 11:43:07;;;;;;;;;8.50;6.00;;;;;17.58;64.18;102105.91;5012427;28;9414;-64
2021/12/12 11:45:43;;;;;;;;;4.75;4.75;;;;;17.52;64.13;102095.22;5012259;28;9517;-64
2021/12/12 11:48:18;;;;;;;;;4.00;4.00;;;;;17.57;64.17;102111.16;5011920;28;9508;-65
2021/12/12 11:51:27;;;;;;;;;3.00;3.00;;;;;17.56;64.03;102114.63;5011994;28;10122;-63
2021/12/12 11:54:18;;;;;;;;;6.00;5.00;;;;;17.51;64.23;102104.00;4991258;28;9392;-64
2021/12/12 11:56:51;;;;;;;;;4.67;4.33;;;;;17.55;64.48;102116.38;5012033;28;9351;-64
2021/12/12 11:59:25;;;;;;;;;5.75;5.75;;;;;17.58;63.97;102116.47;5012053;28;9191;-65
2021/12/12 12:02:10;;;;;;;;;5.00;5.00;;;;;17.59;63.79;102114.69;5011028;28;9410;-64
2021/12/12 12:05:03;;;;;;;;;2.67;2.67;;;;;17.55;64.05;102115.47;5012115;28;9376;-65
2021/12/12 12:07:45;;;;;;;;;3.00;3.00;;;;;17.57;64.24;102122.63;5003945;28;10591;-64
2021/12/12 12:10:18;;;;;;;;;3.33;3.33;;;;;17.55;63.90;102121.66;5011043;28;9363;-65
2021/12/12 12:13:07;;;;;;;;;4.00;4.00;;;;;17.59;63.94;102117.34;5011504;28;9383;-64
2021/12/12 12:15:53;;;;;;;;;4.00;3.67;;;;;17.58;63.97;102124.41;5009521;28;9341;-64
2021/12/12 12:18:31;;;;;;;;;4.25;4.00;;;;;17.58;63.98;102132.31;5010704;28;9341;-63